Albuquerque, NM (87120)

1:09 PM MDT on October 01, 2014 (GMT -0600)
Santa Fe Village (NW ABQ) | Change Station
CLOSE
Current Station
Personal Weather Station
Location: Albuquerque, NM
Elevation: 5228 ft
Nearby Weather Stations

Elev 5228 ft 35.15 °N, 106.72 °W | Updated 4 seconds ago

Clear
Clear
76.3 °F
Feels Like 77 °F
N
1.0
Wind Variable Wind from NW
Gusts 5.0 mph

Today
High -- | Low -- °F
--% Chance of Precip.
Yesterday
High -- | Low -- °F
Precip. -- in
7:01 AM 6:50 PM
Waxing Crescent, 50% visible
Pressure 29.78 in
Visibility 10.0 miles
Clouds Few 8500 ft
Heat Index 77 °F
Dew Point 32 °F
Humidity 20%
Rainfall 0.00 in
Snow Depth 18 in , 0 in , 1 in
UV 8 out of 12
Pollen 5.90 out of 12
Air Quality Not available.
Flu Activity Not available.
METAR KABQ 011852Z 18007KT 10SM FEW085 21/01 A2996 RMK AO2 SLP085 T02110011

More Conditions Fewer Conditions

Pressure 29.78 in
Visibility 10.0 miles
Clouds Few 8500 ft
Heat Index 77 °F
Dew Point 32 °F
Humidity 20%
Rainfall 0.00 in
Snow Depth 18 in , 0 in , 1 in
UV 8 out of 12
Pollen 5.90 out of 12
Air Quality Not available.
Flu Activity Not available.
METAR KABQ 011852Z 18007KT 10SM FEW085 21/01 A2996 RMK AO2 SLP085 T02110011

More Conditions Fewer Conditions

10-Day Weather Forecast

Almanac

Astronomy

Oct. 01, 2014 Rise Set
Actual Time 7:01 AM MDT 6:50 PM MDT
Civil Twilight 6:36 AM MDT 7:15 PM MDT
Nautical Twilight 6:06 AM MDT 7:45 PM MDT
Astronomical Twilight 5:37 AM MDT 8:14 PM MDT
Moon 1:55 PM MDT No Moon Set
Length of Visible Light 12h 39m
Length of Day
11h 48m
Tomorrow will be 2m 11s shorter.
Waxing Crescent, 50% of the Moon is Illuminated
Today
Waxing Crescent
Oct 1
First Quarter
Oct 8
Full
Oct 15
Last Quarter
Oct 23
New

Today's Extremes

State Highs State Lows

Community

WunderPhotos

Upload Photos

1,758,010 photos uploaded!

WunderBlogs® & News

Nearby

Snow Depth

Station Depth Elevation
Silver Creek Divide 18 in 9000 ft
Bateman 0 in 9300 ft
Signal Peak 0 in 8360 ft
North Costilla 1 in 10600 ft
Wesner Springs 2 in 11120 ft

Earthquake Activity

City Distance Mag. Time & Date
Trinidad, Colorado 164 miles 2.9 3:55 AM MDT
2014-09-30
Minimum magnitude displayed is 2.5.

Coastal Water Temperatures

Place Temperature
No Stations Reporting

Nearby Weather Stations